Terminal Aerodrome Forecast
Issued by NWS

Current Version | Previous Version | Text Only | Print | Product List | Glossary On
Versions: 1 2 3 4 5 6 7 8 9 10 11 12
000
FTPQ31 PGUM 050520
TAFGUM
TAF

TAF
PTYA 050520Z 0506/0606 08008KT P6SM VCSH SCT018 SCT050=

USA.gov is the U.S. government's official web portal to all federal, state and local government web resources and services.